sensor_id;sensor_type;location;lat;lon;timestamp;P1;durP1;ratioP1;P2;durP2;ratioP2
48203;SDS011;33994;50.998;5.864;2023-02-01T00:02:24;31.33;;;5.20;;
48203;SDS011;33994;50.998;5.864;2023-02-01T00:05:27;17.90;;;4.72;;
48203;SDS011;33994;50.998;5.864;2023-02-01T00:08:30;16.73;;;4.78;;
48203;SDS011;33994;50.998;5.864;2023-02-01T00:11:33;19.70;;;5.72;;
48203;SDS011;33994;50.998;5.864;2023-02-01T00:14:37;15.55;;;5.20;;
48203;SDS011;33994;50.998;5.864;2023-02-01T00:17:41;16.85;;;5.43;;
48203;SDS011;33994;50.998;5.864;2023-02-01T00:20:45;20.98;;;6.30;;
48203;SDS011;33994;50.998;5.864;2023-02-01T00:23:48;23.80;;;6.10;;
48203;SDS011;33994;50.998;5.864;2023-02-01T00:26:51;19.75;;;6.80;;
48203;SDS011;33994;50.998;5.864;2023-02-01T00:29:54;19.27;;;5.60;;
48203;SDS011;33994;50.998;5.864;2023-02-01T00:32:59;24.15;;;6.97;;
48203;SDS011;33994;50.998;5.864;2023-02-01T00:36:02;20.38;;;6.28;;
48203;SDS011;33994;50.998;5.864;2023-02-01T00:39:07;21.25;;;6.28;;
48203;SDS011;33994;50.998;5.864;2023-02-01T00:42:10;22.60;;;5.60;;
48203;SDS011;33994;50.998;5.864;2023-02-01T00:45:13;20.27;;;5.78;;
48203;SDS011;33994;50.998;5.864;2023-02-01T00:48:17;22.83;;;6.00;;
48203;SDS011;33994;50.998;5.864;2023-02-01T00:51:21;22.80;;;5.63;;
48203;SDS011;33994;50.998;5.864;2023-02-01T00:54:25;24.42;;;5.45;;
48203;SDS011;33994;50.998;5.864;2023-02-01T00:57:28;17.17;;;5.13;;
48203;SDS011;33994;50.998;5.864;2023-02-01T01:00:31;21.27;;;5.28;;
48203;SDS011;33994;50.998;5.864;2023-02-01T01:03:37;17.30;;;5.57;;
48203;SDS011;33994;50.998;5.864;2023-02-01T01:06:41;16.63;;;5.30;;
48203;SDS011;33994;50.998;5.864;2023-02-01T01:09:44;17.20;;;6.15;;
48203;SDS011;33994;50.998;5.864;2023-02-01T01:12:48;20.75;;;6.28;;
48203;SDS011;33994;50.998;5.864;2023-02-01T01:15:51;20.85;;;6.45;;
48203;SDS011;33994;50.998;5.864;2023-02-01T01:18:55;21.23;;;6.13;;
48203;SDS011;33994;50.998;5.864;2023-02-01T01:21:59;24.55;;;7.35;;
48203;SDS011;33994;50.998;5.864;2023-02-01T01:25:02;26.08;;;7.07;;
48203;SDS011;33994;50.998;5.864;2023-02-01T01:28:06;25.92;;;8.70;;
48203;SDS011;33994;50.998;5.864;2023-02-01T01:31:10;21.42;;;9.05;;
48203;SDS011;33994;50.998;5.864;2023-02-01T01:34:15;28.80;;;9.77;;
48203;SDS011;33994;50.998;5.864;2023-02-01T01:37:18;24.08;;;8.35;;
48203;SDS011;33994;50.998;5.864;2023-02-01T01:40:21;30.60;;;9.38;;
48203;SDS011;33994;50.998;5.864;2023-02-01T01:43:24;26.50;;;9.77;;
48203;SDS011;33994;50.998;5.864;2023-02-01T01:46:28;26.17;;;9.40;;
48203;SDS011;33994;50.998;5.864;2023-02-01T01:49:34;28.23;;;9.18;;
48203;SDS011;33994;50.998;5.864;2023-02-01T01:52:37;24.08;;;8.88;;
48203;SDS011;33994;50.998;5.864;2023-02-01T01:55:43;30.73;;;8.40;;
48203;SDS011;33994;50.998;5.864;2023-02-01T01:58:48;23.85;;;9.27;;
48203;SDS011;33994;50.998;5.864;2023-02-01T02:01:51;25.02;;;8.25;;
48203;SDS011;33994;50.998;5.864;2023-02-01T02:04:56;24.75;;;8.85;;
48203;SDS011;33994;50.998;5.864;2023-02-01T02:08:00;32.22;;;8.18;;
48203;SDS011;33994;50.998;5.864;2023-02-01T02:11:03;19.65;;;7.80;;
48203;SDS011;33994;50.998;5.864;2023-02-01T02:14:06;25.58;;;7.72;;
48203;SDS011;33994;50.998;5.864;2023-02-01T02:17:24;26.33;;;8.50;;
48203;SDS011;33994;50.998;5.864;2023-02-01T02:20:43;25.35;;;7.85;;
48203;SDS011;33994;50.998;5.864;2023-02-01T02:27:44;29.40;;;7.97;;
48203;SDS011;33994;50.998;5.864;2023-02-01T02:31:13;25.38;;;8.30;;
48203;SDS011;33994;50.998;5.864;2023-02-01T02:34:29;25.80;;;7.78;;
48203;SDS011;33994;50.998;5.864;2023-02-01T02:37:38;27.88;;;8.40;;
48203;SDS011;33994;50.998;5.864;2023-02-01T02:40:46;26.10;;;7.70;;
48203;SDS011;33994;50.998;5.864;2023-02-01T02:43:52;21.95;;;7.95;;
48203;SDS011;33994;50.998;5.864;2023-02-01T02:47:02;26.30;;;7.47;;
48203;SDS011;33994;50.998;5.864;2023-02-01T02:50:15;27.15;;;6.40;;
48203;SDS011;33994;50.998;5.864;2023-02-01T02:53:27;27.70;;;8.68;;
48203;SDS011;33994;50.998;5.864;2023-02-01T02:56:35;24.58;;;6.45;;
48203;SDS011;33994;50.998;5.864;2023-02-01T02:59:40;29.05;;;8.15;;
48203;SDS011;33994;50.998;5.864;2023-02-01T03:02:47;22.88;;;6.38;;
48203;SDS011;33994;50.998;5.864;2023-02-01T03:05:53;22.65;;;6.30;;
48203;SDS011;33994;50.998;5.864;2023-02-01T03:08:56;35.33;;;6.63;;
48203;SDS011;33994;50.998;5.864;2023-02-01T03:12:04;21.13;;;6.18;;
48203;SDS011;33994;50.998;5.864;2023-02-01T03:15:11;20.07;;;6.20;;
48203;SDS011;33994;50.998;5.864;2023-02-01T03:18:16;25.08;;;4.95;;
48203;SDS011;33994;50.998;5.864;2023-02-01T03:21:26;20.90;;;5.90;;
48203;SDS011;33994;50.998;5.864;2023-02-01T03:24:34;28.05;;;5.72;;
48203;SDS011;33994;50.998;5.864;2023-02-01T03:27:41;20.70;;;5.97;;
48203;SDS011;33994;50.998;5.864;2023-02-01T03:30:48;22.45;;;5.28;;
48203;SDS011;33994;50.998;5.864;2023-02-01T03:33:52;21.92;;;5.75;;
48203;SDS011;33994;50.998;5.864;2023-02-01T03:36:57;27.08;;;6.28;;
48203;SDS011;33994;50.998;5.864;2023-02-01T03:40:03;23.45;;;5.97;;
48203;SDS011;33994;50.998;5.864;2023-02-01T03:43:10;26.08;;;5.47;;
48203;SDS011;33994;50.998;5.864;2023-02-01T03:46:19;21.77;;;5.40;;
48203;SDS011;33994;50.998;5.864;2023-02-01T03:49:27;17.88;;;4.07;;
48203;SDS011;33994;50.998;5.864;2023-02-01T03:52:35;20.50;;;3.88;;
48203;SDS011;33994;50.998;5.864;2023-02-01T03:55:43;18.63;;;5.28;;
48203;SDS011;33994;50.998;5.864;2023-02-01T03:58:46;23.90;;;5.30;;
48203;SDS011;33994;50.998;5.864;2023-02-01T04:01:49;26.38;;;4.35;;
48203;SDS011;33994;50.998;5.864;2023-02-01T04:04:52;30.83;;;5.25;;
48203;SDS011;33994;50.998;5.864;2023-02-01T04:07:57;24.13;;;3.40;;
48203;SDS011;33994;50.998;5.864;2023-02-01T04:11:00;22.60;;;5.03;;
48203;SDS011;33994;50.998;5.864;2023-02-01T04:14:03;17.40;;;3.45;;
48203;SDS011;33994;50.998;5.864;2023-02-01T04:17:06;27.13;;;3.33;;
48203;SDS011;33994;50.998;5.864;2023-02-01T04:20:10;17.27;;;3.28;;
48203;SDS011;33994;50.998;5.864;2023-02-01T04:23:15;19.33;;;3.15;;
48203;SDS011;33994;50.998;5.864;2023-02-01T04:26:17;22.40;;;3.70;;
48203;SDS011;33994;50.998;5.864;2023-02-01T04:29:21;12.98;;;3.33;;
48203;SDS011;33994;50.998;5.864;2023-02-01T04:32:24;19.20;;;3.72;;
48203;SDS011;33994;50.998;5.864;2023-02-01T04:35:27;22.25;;;4.03;;
48203;SDS011;33994;50.998;5.864;2023-02-01T04:38:31;23.90;;;4.20;;
48203;SDS011;33994;50.998;5.864;2023-02-01T04:41:34;16.05;;;2.97;;
48203;SDS011;33994;50.998;5.864;2023-02-01T04:44:37;21.45;;;3.20;;
48203;SDS011;33994;50.998;5.864;2023-02-01T04:47:41;18.80;;;3.40;;
48203;SDS011;33994;50.998;5.864;2023-02-01T04:50:44;18.60;;;3.30;;
48203;SDS011;33994;50.998;5.864;2023-02-01T04:53:49;13.00;;;3.08;;
48203;SDS011;33994;50.998;5.864;2023-02-01T04:56:52;20.90;;;3.65;;
48203;SDS011;33994;50.998;5.864;2023-02-01T04:59:55;17.80;;;3.42;;
48203;SDS011;33994;50.998;5.864;2023-02-01T05:02:58;17.50;;;3.03;;
48203;SDS011;33994;50.998;5.864;2023-02-01T05:06:01;19.08;;;3.42;;
48203;SDS011;33994;50.998;5.864;2023-02-01T05:09:06;27.13;;;3.88;;
48203;SDS011;33994;50.998;5.864;2023-02-01T05:12:09;20.42;;;5.00;;
48203;SDS011;33994;50.998;5.864;2023-02-01T05:15:13;23.25;;;4.30;;
48203;SDS011;33994;50.998;5.864;2023-02-01T05:18:16;18.88;;;3.72;;
48203;SDS011;33994;50.998;5.864;2023-02-01T05:21:20;20.85;;;4.05;;
48203;SDS011;33994;50.998;5.864;2023-02-01T05:24:24;30.45;;;3.80;;
48203;SDS011;33994;50.998;5.864;2023-02-01T05:27:28;23.17;;;4.43;;
48203;SDS011;33994;50.998;5.864;2023-02-01T05:30:32;17.38;;;3.05;;
48203;SDS011;33994;50.998;5.864;2023-02-01T05:33:35;19.15;;;3.53;;
48203;SDS011;33994;50.998;5.864;2023-02-01T05:36:38;19.50;;;4.03;;
48203;SDS011;33994;50.998;5.864;2023-02-01T05:39:43;17.05;;;4.40;;
48203;SDS011;33994;50.998;5.864;2023-02-01T05:42:46;20.10;;;3.58;;
48203;SDS011;33994;50.998;5.864;2023-02-01T05:45:51;18.30;;;3.90;;
48203;SDS011;33994;50.998;5.864;2023-02-01T05:48:55;21.75;;;4.00;;
48203;SDS011;33994;50.998;5.864;2023-02-01T05:51:58;15.10;;;3.20;;
48203;SDS011;33994;50.998;5.864;2023-02-01T05:55:03;18.42;;;3.28;;
48203;SDS011;33994;50.998;5.864;2023-02-01T05:58:07;16.35;;;4.93;;
48203;SDS011;33994;50.998;5.864;2023-02-01T06:01:10;19.42;;;3.72;;
48203;SDS011;33994;50.998;5.864;2023-02-01T06:04:13;16.00;;;3.83;;
48203;SDS011;33994;50.998;5.864;2023-02-01T06:07:17;17.77;;;3.38;;
48203;SDS011;33994;50.998;5.864;2023-02-01T06:10:21;25.10;;;5.32;;
48203;SDS011;33994;50.998;5.864;2023-02-01T06:13:25;24.00;;;4.00;;
48203;SDS011;33994;50.998;5.864;2023-02-01T06:16:28;17.73;;;3.45;;
48203;SDS011;33994;50.998;5.864;2023-02-01T06:19:31;24.48;;;4.47;;
48203;SDS011;33994;50.998;5.864;2023-02-01T06:22:34;16.38;;;2.83;;
48203;SDS011;33994;50.998;5.864;2023-02-01T06:25:39;19.15;;;3.67;;
48203;SDS011;33994;50.998;5.864;2023-02-01T06:28:42;20.27;;;4.53;;
48203;SDS011;33994;50.998;5.864;2023-02-01T06:31:45;18.38;;;3.55;;
48203;SDS011;33994;50.998;5.864;2023-02-01T06:34:48;18.95;;;3.28;;
48203;SDS011;33994;50.998;5.864;2023-02-01T06:37:51;28.58;;;3.67;;
48203;SDS011;33994;50.998;5.864;2023-02-01T06:40:56;16.08;;;3.63;;
48203;SDS011;33994;50.998;5.864;2023-02-01T06:44:00;23.50;;;4.53;;
48203;SDS011;33994;50.998;5.864;2023-02-01T06:47:03;24.35;;;3.92;;
48203;SDS011;33994;50.998;5.864;2023-02-01T06:50:07;23.42;;;4.03;;
48203;SDS011;33994;50.998;5.864;2023-02-01T06:53:11;21.08;;;4.15;;
48203;SDS011;33994;50.998;5.864;2023-02-01T06:56:15;23.85;;;4.28;;
48203;SDS011;33994;50.998;5.864;2023-02-01T06:59:18;25.90;;;4.05;;
48203;SDS011;33994;50.998;5.864;2023-02-01T07:02:21;20.35;;;3.55;;
48203;SDS011;33994;50.998;5.864;2023-02-01T07:05:24;22.00;;;3.38;;
48203;SDS011;33994;50.998;5.864;2023-02-01T07:08:28;22.92;;;5.47;;
48203;SDS011;33994;50.998;5.864;2023-02-01T07:11:32;20.02;;;4.03;;
48203;SDS011;33994;50.998;5.864;2023-02-01T07:14:35;26.42;;;4.13;;
48203;SDS011;33994;50.998;5.864;2023-02-01T07:17:39;22.98;;;4.47;;
48203;SDS011;33994;50.998;5.864;2023-02-01T07:20:42;23.15;;;4.22;;
48203;SDS011;33994;50.998;5.864;2023-02-01T07:23:45;22.58;;;3.70;;
48203;SDS011;33994;50.998;5.864;2023-02-01T07:26:50;22.08;;;3.67;;
48203;SDS011;33994;50.998;5.864;2023-02-01T07:29:53;27.02;;;4.57;;
48203;SDS011;33994;50.998;5.864;2023-02-01T07:32:56;21.50;;;3.97;;
48203;SDS011;33994;50.998;5.864;2023-02-01T07:36:00;19.10;;;3.92;;
48203;SDS011;33994;50.998;5.864;2023-02-01T07:39:04;19.27;;;3.75;;
48203;SDS011;33994;50.998;5.864;2023-02-01T07:42:08;18.55;;;3.72;;
48203;SDS011;33994;50.998;5.864;2023-02-01T07:45:12;28.15;;;4.70;;
48203;SDS011;33994;50.998;5.864;2023-02-01T07:48:15;20.33;;;3.65;;
48203;SDS011;33994;50.998;5.864;2023-02-01T07:51:18;19.17;;;4.13;;
48203;SDS011;33994;50.998;5.864;2023-02-01T07:54:21;19.33;;;4.13;;
48203;SDS011;33994;50.998;5.864;2023-02-01T07:57:25;27.70;;;4.32;;
48203;SDS011;33994;50.998;5.864;2023-02-01T08:00:28;23.25;;;3.75;;
48203;SDS011;33994;50.998;5.864;2023-02-01T08:03:31;22.23;;;3.88;;
48203;SDS011;33994;50.998;5.864;2023-02-01T08:06:34;19.30;;;3.85;;
48203;SDS011;33994;50.998;5.864;2023-02-01T08:09:37;15.13;;;3.53;;
48203;SDS011;33994;50.998;5.864;2023-02-01T08:12:41;20.90;;;3.50;;
48203;SDS011;33994;50.998;5.864;2023-02-01T08:15:44;19.85;;;3.30;;
48203;SDS011;33994;50.998;5.864;2023-02-01T08:18:47;19.98;;;3.55;;
48203;SDS011;33994;50.998;5.864;2023-02-01T08:21:51;22.85;;;4.03;;
48203;SDS011;33994;50.998;5.864;2023-02-01T08:24:53;18.48;;;3.85;;
48203;SDS011;33994;50.998;5.864;2023-02-01T08:27:58;22.00;;;3.60;;
48203;SDS011;33994;50.998;5.864;2023-02-01T08:31:03;29.63;;;3.58;;
48203;SDS011;33994;50.998;5.864;2023-02-01T08:34:07;22.25;;;3.33;;
48203;SDS011;33994;50.998;5.864;2023-02-01T08:37:10;19.88;;;4.78;;
48203;SDS011;33994;50.998;5.864;2023-02-01T08:40:13;16.67;;;2.78;;
48203;SDS011;33994;50.998;5.864;2023-02-01T08:43:19;23.52;;;5.07;;
48203;SDS011;33994;50.998;5.864;2023-02-01T08:46:22;20.33;;;3.75;;
48203;SDS011;33994;50.998;5.864;2023-02-01T08:49:25;27.75;;;3.60;;
48203;SDS011;33994;50.998;5.864;2023-02-01T08:52:28;24.08;;;4.30;;
48203;SDS011;33994;50.998;5.864;2023-02-01T08:55:31;24.75;;;3.55;;
48203;SDS011;33994;50.998;5.864;2023-02-01T08:58:36;23.30;;;3.67;;
48203;SDS011;33994;50.998;5.864;2023-02-01T09:01:39;17.27;;;3.40;;
48203;SDS011;33994;50.998;5.864;2023-02-01T09:04:42;13.93;;;4.18;;
48203;SDS011;33994;50.998;5.864;2023-02-01T09:07:45;24.48;;;3.85;;
48203;SDS011;33994;50.998;5.864;2023-02-01T09:10:48;15.60;;;3.95;;
48203;SDS011;33994;50.998;5.864;2023-02-01T09:13:52;25.42;;;4.20;;
48203;SDS011;33994;50.998;5.864;2023-02-01T09:16:55;20.92;;;3.03;;
48203;SDS011;33994;50.998;5.864;2023-02-01T09:19:59;21.40;;;3.80;;
48203;SDS011;33994;50.998;5.864;2023-02-01T09:23:02;17.92;;;3.08;;
48203;SDS011;33994;50.998;5.864;2023-02-01T09:26:05;24.02;;;3.22;;
48203;SDS011;33994;50.998;5.864;2023-02-01T09:29:10;19.92;;;3.95;;
48203;SDS011;33994;50.998;5.864;2023-02-01T09:32:13;26.02;;;3.50;;
48203;SDS011;33994;50.998;5.864;2023-02-01T09:35:16;22.88;;;5.15;;
48203;SDS011;33994;50.998;5.864;2023-02-01T09:38:19;24.80;;;4.13;;
48203;SDS011;33994;50.998;5.864;2023-02-01T09:41:26;24.58;;;4.07;;
48203;SDS011;33994;50.998;5.864;2023-02-01T09:44:46;22.20;;;4.07;;
48203;SDS011;33994;50.998;5.864;2023-02-01T09:47:59;25.20;;;4.35;;
48203;SDS011;33994;50.998;5.864;2023-02-01T09:51:06;21.38;;;4.15;;
48203;SDS011;33994;50.998;5.864;2023-02-01T09:54:16;20.17;;;3.90;;
48203;SDS011;33994;50.998;5.864;2023-02-01T09:57:22;22.73;;;4.80;;
48203;SDS011;33994;50.998;5.864;2023-02-01T10:00:31;26.23;;;3.95;;
48203;SDS011;33994;50.998;5.864;2023-02-01T10:03:37;15.57;;;5.07;;
48203;SDS011;33994;50.998;5.864;2023-02-01T10:06:43;26.45;;;5.00;;
48203;SDS011;33994;50.998;5.864;2023-02-01T10:09:58;22.23;;;4.13;;
48203;SDS011;33994;50.998;5.864;2023-02-01T10:13:09;23.88;;;3.13;;
48203;SDS011;33994;50.998;5.864;2023-02-01T10:16:42;19.02;;;4.22;;
48203;SDS011;33994;50.998;5.864;2023-02-01T10:19:56;24.42;;;4.05;;
48203;SDS011;33994;50.998;5.864;2023-02-01T10:23:11;23.95;;;4.65;;
48203;SDS011;33994;50.998;5.864;2023-02-01T10:26:26;20.60;;;4.35;;
48203;SDS011;33994;50.998;5.864;2023-02-01T10:29:36;25.13;;;3.80;;
48203;SDS011;33994;50.998;5.864;2023-02-01T10:32:43;21.52;;;4.03;;
48203;SDS011;33994;50.998;5.864;2023-02-01T10:35:46;16.73;;;3.70;;
48203;SDS011;33994;50.998;5.864;2023-02-01T10:38:56;25.80;;;4.07;;
48203;SDS011;33994;50.998;5.864;2023-02-01T10:42:00;22.58;;;4.18;;
48203;SDS011;33994;50.998;5.864;2023-02-01T10:45:03;16.20;;;5.35;;
48203;SDS011;33994;50.998;5.864;2023-02-01T10:48:09;18.08;;;3.65;;
48203;SDS011;33994;50.998;5.864;2023-02-01T10:51:14;22.48;;;4.40;;
48203;SDS011;33994;50.998;5.864;2023-02-01T10:54:31;27.02;;;4.38;;
48203;SDS011;33994;50.998;5.864;2023-02-01T10:57:36;22.80;;;3.55;;
48203;SDS011;33994;50.998;5.864;2023-02-01T11:00:41;17.00;;;3.60;;
48203;SDS011;33994;50.998;5.864;2023-02-01T11:03:53;16.50;;;3.97;;
48203;SDS011;33994;50.998;5.864;2023-02-01T11:07:04;24.63;;;4.07;;
48203;SDS011;33994;50.998;5.864;2023-02-01T11:10:10;19.15;;;3.53;;
48203;SDS011;33994;50.998;5.864;2023-02-01T11:13:37;20.25;;;4.05;;
48203;SDS011;33994;50.998;5.864;2023-02-01T11:16:41;22.75;;;3.30;;
48203;SDS011;33994;50.998;5.864;2023-02-01T11:19:57;21.90;;;4.05;;
48203;SDS011;33994;50.998;5.864;2023-02-01T11:23:01;24.02;;;3.72;;
48203;SDS011;33994;50.998;5.864;2023-02-01T11:26:07;19.15;;;3.53;;
48203;SDS011;33994;50.998;5.864;2023-02-01T11:29:15;16.75;;;3.95;;
48203;SDS011;33994;50.998;5.864;2023-02-01T11:32:21;22.95;;;4.05;;
48203;SDS011;33994;50.998;5.864;2023-02-01T11:35:27;17.38;;;3.28;;
48203;SDS011;33994;50.998;5.864;2023-02-01T11:38:33;18.13;;;2.83;;
48203;SDS011;33994;50.998;5.864;2023-02-01T11:41:43;15.80;;;2.55;;
48203;SDS011;33994;50.998;5.864;2023-02-01T11:48:23;19.35;;;2.67;;
48203;SDS011;33994;50.998;5.864;2023-02-01T11:51:37;13.88;;;2.78;;
48203;SDS011;33994;50.998;5.864;2023-02-01T11:54:54;14.88;;;2.70;;
48203;SDS011;33994;50.998;5.864;2023-02-01T11:58:09;23.67;;;3.25;;
48203;SDS011;33994;50.998;5.864;2023-02-01T12:01:35;19.08;;;2.75;;
48203;SDS011;33994;50.998;5.864;2023-02-01T12:05:06;13.25;;;2.80;;
48203;SDS011;33994;50.998;5.864;2023-02-01T12:08:29;14.63;;;4.65;;
48203;SDS011;33994;50.998;5.864;2023-02-01T12:11:46;14.57;;;2.80;;
48203;SDS011;33994;50.998;5.864;2023-02-01T12:18:37;15.75;;;3.55;;
48203;SDS011;33994;50.998;5.864;2023-02-01T12:22:02;17.90;;;3.10;;
48203;SDS011;33994;50.998;5.864;2023-02-01T12:25:23;18.27;;;2.47;;
48203;SDS011;33994;50.998;5.864;2023-02-01T12:28:45;17.95;;;2.85;;
48203;SDS011;33994;50.998;5.864;2023-02-01T12:35:18;14.63;;;2.80;;
48203;SDS011;33994;50.998;5.864;2023-02-01T12:38:35;13.93;;;3.42;;
48203;SDS011;33994;50.998;5.864;2023-02-01T12:41:49;18.33;;;3.35;;
48203;SDS011;33994;50.998;5.864;2023-02-01T12:44:56;19.83;;;2.83;;
48203;SDS011;33994;50.998;5.864;2023-02-01T12:48:09;12.77;;;2.83;;
48203;SDS011;33994;50.998;5.864;2023-02-01T12:51:21;13.02;;;2.70;;
48203;SDS011;33994;50.998;5.864;2023-02-01T12:54:31;13.18;;;2.20;;
48203;SDS011;33994;50.998;5.864;2023-02-01T12:57:42;18.05;;;3.13;;
48203;SDS011;33994;50.998;5.864;2023-02-01T13:00:49;19.27;;;3.22;;
48203;SDS011;33994;50.998;5.864;2023-02-01T13:03:59;13.73;;;2.15;;
48203;SDS011;33994;50.998;5.864;2023-02-01T13:07:07;18.48;;;2.58;;
48203;SDS011;33994;50.998;5.864;2023-02-01T13:10:16;18.92;;;2.95;;
48203;SDS011;33994;50.998;5.864;2023-02-01T13:13:26;23.58;;;2.75;;
48203;SDS011;33994;50.998;5.864;2023-02-01T13:16:35;12.50;;;2.03;;
48203;SDS011;33994;50.998;5.864;2023-02-01T13:19:44;15.85;;;2.33;;
48203;SDS011;33994;50.998;5.864;2023-02-01T13:25:57;12.90;;;2.20;;
48203;SDS011;33994;50.998;5.864;2023-02-01T13:29:03;11.35;;;2.58;;
48203;SDS011;33994;50.998;5.864;2023-02-01T13:35:53;13.25;;;2.17;;
48203;SDS011;33994;50.998;5.864;2023-02-01T13:39:34;12.18;;;2.22;;
48203;SDS011;33994;50.998;5.864;2023-02-01T13:42:53;16.17;;;2.25;;
48203;SDS011;33994;50.998;5.864;2023-02-01T13:46:04;13.90;;;3.00;;
48203;SDS011;33994;50.998;5.864;2023-02-01T13:49:15;12.00;;;1.98;;
48203;SDS011;33994;50.998;5.864;2023-02-01T13:52:28;9.43;;;2.45;;
48203;SDS011;33994;50.998;5.864;2023-02-01T13:55:37;11.05;;;2.35;;
48203;SDS011;33994;50.998;5.864;2023-02-01T13:58:41;12.43;;;3.15;;
48203;SDS011;33994;50.998;5.864;2023-02-01T14:01:47;12.55;;;2.53;;
48203;SDS011;33994;50.998;5.864;2023-02-01T14:04:50;10.52;;;2.00;;
48203;SDS011;33994;50.998;5.864;2023-02-01T14:08:09;15.40;;;2.85;;
48203;SDS011;33994;50.998;5.864;2023-02-01T14:11:34;15.63;;;2.60;;
48203;SDS011;33994;50.998;5.864;2023-02-01T14:14:41;14.57;;;3.47;;
48203;SDS011;33994;50.998;5.864;2023-02-01T14:17:46;16.05;;;2.83;;
48203;SDS011;33994;50.998;5.864;2023-02-01T14:20:49;18.23;;;2.63;;
48203;SDS011;33994;50.998;5.864;2023-02-01T14:23:57;14.32;;;2.13;;
48203;SDS011;33994;50.998;5.864;2023-02-01T14:27:06;16.13;;;2.63;;
48203;SDS011;33994;50.998;5.864;2023-02-01T14:30:20;13.32;;;2.20;;
48203;SDS011;33994;50.998;5.864;2023-02-01T14:33:27;14.18;;;2.50;;
48203;SDS011;33994;50.998;5.864;2023-02-01T14:36:38;18.65;;;2.88;;
48203;SDS011;33994;50.998;5.864;2023-02-01T14:43:07;12.98;;;2.42;;
48203;SDS011;33994;50.998;5.864;2023-02-01T14:46:10;14.77;;;2.60;;
48203;SDS011;33994;50.998;5.864;2023-02-01T14:49:15;17.50;;;1.90;;
48203;SDS011;33994;50.998;5.864;2023-02-01T14:52:19;13.50;;;2.80;;
48203;SDS011;33994;50.998;5.864;2023-02-01T14:55:25;10.85;;;1.98;;
48203;SDS011;33994;50.998;5.864;2023-02-01T15:01:39;11.27;;;2.60;;
48203;SDS011;33994;50.998;5.864;2023-02-01T15:04:55;21.02;;;2.35;;
48203;SDS011;33994;50.998;5.864;2023-02-01T15:08:06;11.65;;;2.65;;
48203;SDS011;33994;50.998;5.864;2023-02-01T15:11:16;16.67;;;2.78;;
48203;SDS011;33994;50.998;5.864;2023-02-01T15:14:19;15.43;;;3.85;;
48203;SDS011;33994;50.998;5.864;2023-02-01T15:17:23;17.13;;;4.30;;
48203;SDS011;33994;50.998;5.864;2023-02-01T15:20:29;13.73;;;3.58;;
48203;SDS011;33994;50.998;5.864;2023-02-01T15:23:33;9.90;;;2.25;;
48203;SDS011;33994;50.998;5.864;2023-02-01T15:26:37;20.63;;;3.95;;
48203;SDS011;33994;50.998;5.864;2023-02-01T15:29:40;10.13;;;2.08;;
48203;SDS011;33994;50.998;5.864;2023-02-01T15:32:43;9.02;;;2.08;;
48203;SDS011;33994;50.998;5.864;2023-02-01T15:35:48;13.73;;;2.17;;
48203;SDS011;33994;50.998;5.864;2023-02-01T15:42:18;11.68;;;2.42;;
48203;SDS011;33994;50.998;5.864;2023-02-01T15:45:22;18.75;;;2.63;;
48203;SDS011;33994;50.998;5.864;2023-02-01T15:48:30;10.52;;;2.10;;
48203;SDS011;33994;50.998;5.864;2023-02-01T15:51:39;19.77;;;3.15;;
48203;SDS011;33994;50.998;5.864;2023-02-01T15:54:49;21.45;;;3.35;;
48203;SDS011;33994;50.998;5.864;2023-02-01T15:57:54;9.65;;;2.22;;
48203;SDS011;33994;50.998;5.864;2023-02-01T16:00:58;18.58;;;2.47;;
48203;SDS011;33994;50.998;5.864;2023-02-01T16:04:04;15.90;;;3.65;;
48203;SDS011;33994;50.998;5.864;2023-02-01T16:07:25;15.95;;;2.95;;
48203;SDS011;33994;50.998;5.864;2023-02-01T16:10:30;14.30;;;2.50;;
48203;SDS011;33994;50.998;5.864;2023-02-01T16:13:34;18.90;;;2.90;;
48203;SDS011;33994;50.998;5.864;2023-02-01T16:16:38;14.65;;;3.08;;
48203;SDS011;33994;50.998;5.864;2023-02-01T16:19:41;10.55;;;2.17;;
48203;SDS011;33994;50.998;5.864;2023-02-01T16:22:45;14.20;;;2.53;;
48203;SDS011;33994;50.998;5.864;2023-02-01T16:25:48;10.02;;;2.60;;
48203;SDS011;33994;50.998;5.864;2023-02-01T16:28:51;11.27;;;2.53;;
48203;SDS011;33994;50.998;5.864;2023-02-01T16:31:54;13.82;;;2.75;;
48203;SDS011;33994;50.998;5.864;2023-02-01T16:34:57;21.13;;;2.35;;
48203;SDS011;33994;50.998;5.864;2023-02-01T16:38:02;22.42;;;2.63;;
48203;SDS011;33994;50.998;5.864;2023-02-01T16:41:05;14.45;;;2.53;;
48203;SDS011;33994;50.998;5.864;2023-02-01T16:44:08;19.30;;;2.92;;
48203;SDS011;33994;50.998;5.864;2023-02-01T16:47:12;16.55;;;3.03;;
48203;SDS011;33994;50.998;5.864;2023-02-01T16:50:20;11.65;;;2.20;;
48203;SDS011;33994;50.998;5.864;2023-02-01T16:53:27;17.00;;;3.03;;
48203;SDS011;33994;50.998;5.864;2023-02-01T16:56:32;14.38;;;2.55;;
48203;SDS011;33994;50.998;5.864;2023-02-01T16:59:35;15.80;;;2.60;;
48203;SDS011;33994;50.998;5.864;2023-02-01T17:02:38;13.20;;;2.72;;
48203;SDS011;33994;50.998;5.864;2023-02-01T17:05:42;19.05;;;3.22;;
48203;SDS011;33994;50.998;5.864;2023-02-01T17:08:50;13.85;;;3.15;;
48203;SDS011;33994;50.998;5.864;2023-02-01T17:11:55;19.50;;;3.38;;
48203;SDS011;33994;50.998;5.864;2023-02-01T17:14:58;19.95;;;3.58;;
48203;SDS011;33994;50.998;5.864;2023-02-01T17:18:02;13.55;;;2.67;;
48203;SDS011;33994;50.998;5.864;2023-02-01T17:21:05;20.13;;;3.80;;
48203;SDS011;33994;50.998;5.864;2023-02-01T17:24:10;20.75;;;3.45;;
48203;SDS011;33994;50.998;5.864;2023-02-01T17:27:15;24.00;;;3.83;;
48203;SDS011;33994;50.998;5.864;2023-02-01T17:30:19;18.65;;;3.22;;
48203;SDS011;33994;50.998;5.864;2023-02-01T17:33:23;16.13;;;3.00;;
48203;SDS011;33994;50.998;5.864;2023-02-01T17:36:27;17.15;;;3.08;;
48203;SDS011;33994;50.998;5.864;2023-02-01T17:39:31;16.33;;;2.78;;
48203;SDS011;33994;50.998;5.864;2023-02-01T17:42:35;20.70;;;3.40;;
48203;SDS011;33994;50.998;5.864;2023-02-01T17:45:39;14.30;;;3.13;;
48203;SDS011;33994;50.998;5.864;2023-02-01T17:48:45;12.30;;;3.00;;
48203;SDS011;33994;50.998;5.864;2023-02-01T17:51:48;19.73;;;2.80;;
48203;SDS011;33994;50.998;5.864;2023-02-01T17:54:52;20.92;;;3.17;;
48203;SDS011;33994;50.998;5.864;2023-02-01T17:57:56;17.13;;;3.13;;
48203;SDS011;33994;50.998;5.864;2023-02-01T18:00:59;22.40;;;3.55;;
48203;SDS011;33994;50.998;5.864;2023-02-01T18:04:02;22.75;;;4.53;;
48203;SDS011;33994;50.998;5.864;2023-02-01T18:07:06;16.33;;;3.25;;
48203;SDS011;33994;50.998;5.864;2023-02-01T18:10:11;18.27;;;2.85;;
48203;SDS011;33994;50.998;5.864;2023-02-01T18:13:14;12.82;;;3.13;;
48203;SDS011;33994;50.998;5.864;2023-02-01T18:16:18;13.35;;;3.00;;
48203;SDS011;33994;50.998;5.864;2023-02-01T18:19:23;17.55;;;3.08;;
48203;SDS011;33994;50.998;5.864;2023-02-01T18:22:26;12.05;;;2.85;;
48203;SDS011;33994;50.998;5.864;2023-02-01T18:25:30;16.52;;;3.40;;
48203;SDS011;33994;50.998;5.864;2023-02-01T18:28:33;17.13;;;3.13;;
48203;SDS011;33994;50.998;5.864;2023-02-01T18:31:38;13.35;;;2.90;;
48203;SDS011;33994;50.998;5.864;2023-02-01T18:34:46;21.33;;;3.13;;
48203;SDS011;33994;50.998;5.864;2023-02-01T18:37:50;23.15;;;3.83;;
48203;SDS011;33994;50.998;5.864;2023-02-01T18:40:55;18.27;;;3.28;;
48203;SDS011;33994;50.998;5.864;2023-02-01T18:43:58;17.77;;;3.20;;
48203;SDS011;33994;50.998;5.864;2023-02-01T18:47:01;17.00;;;3.83;;
48203;SDS011;33994;50.998;5.864;2023-02-01T18:50:04;21.38;;;2.80;;
48203;SDS011;33994;50.998;5.864;2023-02-01T18:53:09;18.23;;;2.67;;
48203;SDS011;33994;50.998;5.864;2023-02-01T18:56:16;17.85;;;2.85;;
48203;SDS011;33994;50.998;5.864;2023-02-01T18:59:20;14.52;;;3.00;;